sensor_id;sensor_type;location;lat;lon;timestamp;P1;durP1;ratioP1;P2;durP2;ratioP2
35685;SDS011;21808;42.142;24.720;2024-01-15T10:58:51;21.08;;;12.23;;
35685;SDS011;21808;42.142;24.720;2024-01-15T10:59:06;22.17;;;12.75;;
35685;SDS011;21808;42.142;24.720;2024-01-15T10:59:20;22.30;;;13.00;;
35685;SDS011;21808;42.142;24.720;2024-01-15T10:59:32;21.85;;;13.50;;
35685;SDS011;21808;42.142;24.720;2024-01-15T10:59:44;21.10;;;13.52;;
35685;SDS011;21808;42.142;24.720;2024-01-15T10:59:56;20.45;;;13.15;;
35685;SDS011;21808;42.142;24.720;2024-01-15T11:00:08;21.08;;;13.02;;
35685;SDS011;21808;42.142;24.720;2024-01-15T11:00:20;21.45;;;12.88;;
35685;SDS011;21808;42.142;24.720;2024-01-15T11:00:32;21.05;;;13.10;;
35685;SDS011;21808;42.142;24.720;2024-01-15T11:00:45;20.25;;;13.20;;
35685;SDS011;21808;42.142;24.720;2024-01-15T11:00:57;20.48;;;13.70;;
35685;SDS011;21808;42.142;24.720;2024-01-15T11:01:09;21.15;;;13.50;;
35685;SDS011;21808;42.142;24.720;2024-01-15T11:01:21;22.38;;;13.65;;
35685;SDS011;21808;42.142;24.720;2024-01-15T11:01:36;25.15;;;14.13;;
35685;SDS011;21808;42.142;24.720;2024-01-15T11:01:49;24.73;;;13.93;;
35685;SDS011;21808;42.142;24.720;2024-01-15T11:02:02;21.77;;;13.57;;
35685;SDS011;21808;42.142;24.720;2024-01-15T11:02:17;21.15;;;13.35;;
35685;SDS011;21808;42.142;24.720;2024-01-15T11:02:29;22.30;;;13.60;;
35685;SDS011;21808;42.142;24.720;2024-01-15T11:02:41;22.38;;;13.82;;
35685;SDS011;21808;42.142;24.720;2024-01-15T11:02:53;21.80;;;13.95;;
35685;SDS011;21808;42.142;24.720;2024-01-15T11:03:06;20.58;;;13.40;;
35685;SDS011;21808;42.142;24.720;2024-01-15T11:03:18;20.83;;;13.00;;
35685;SDS011;21808;42.142;24.720;2024-01-15T11:03:30;20.95;;;13.43;;
35685;SDS011;21808;42.142;24.720;2024-01-15T11:03:43;20.42;;;13.82;;
35685;SDS011;21808;42.142;24.720;2024-01-15T11:03:55;21.05;;;14.05;;
35685;SDS011;21808;42.142;24.720;2024-01-15T11:04:08;21.50;;;13.65;;
35685;SDS011;21808;42.142;24.720;2024-01-15T11:04:21;21.75;;;13.80;;
35685;SDS011;21808;42.142;24.720;2024-01-15T11:04:33;21.70;;;13.55;;
35685;SDS011;21808;42.142;24.720;2024-01-15T11:04:45;21.00;;;13.27;;
35685;SDS011;21808;42.142;24.720;2024-01-15T11:04:58;20.98;;;13.65;;
35685;SDS011;21808;42.142;24.720;2024-01-15T11:05:10;20.30;;;13.98;;
35685;SDS011;21808;42.142;24.720;2024-01-15T11:05:22;20.63;;;14.13;;
35685;SDS011;21808;42.142;24.720;2024-01-15T11:05:36;20.33;;;13.77;;
35685;SDS011;21808;42.142;24.720;2024-01-15T11:05:48;20.67;;;13.63;;
35685;SDS011;21808;42.142;24.720;2024-01-15T11:06:00;21.52;;;13.77;;
35685;SDS011;21808;42.142;24.720;2024-01-15T11:06:18;21.55;;;13.82;;
35685;SDS011;21808;42.142;24.720;2024-01-15T11:06:40;20.95;;;13.73;;
35685;SDS011;21808;42.142;24.720;2024-01-15T11:06:54;21.15;;;13.63;;
35685;SDS011;21808;42.142;24.720;2024-01-15T11:07:08;21.63;;;13.88;;
35685;SDS011;21808;42.142;24.720;2024-01-15T11:07:22;20.75;;;13.63;;
35685;SDS011;21808;42.142;24.720;2024-01-15T11:07:39;20.35;;;13.07;;
35685;SDS011;21808;42.142;24.720;2024-01-15T11:07:54;21.95;;;13.75;;
35685;SDS011;21808;42.142;24.720;2024-01-15T11:08:06;24.75;;;14.98;;
35685;SDS011;21808;42.142;24.720;2024-01-15T11:08:19;199.02;;;105.28;;
35685;SDS011;21808;42.142;24.720;2024-01-15T11:08:31;506.80;;;310.25;;
35685;SDS011;21808;42.142;24.720;2024-01-15T11:08:43;617.08;;;393.17;;
35685;SDS011;21808;42.142;24.720;2024-01-15T11:08:55;441.20;;;280.95;;
35685;SDS011;21808;42.142;24.720;2024-01-15T11:09:07;381.65;;;233.50;;
35685;SDS011;21808;42.142;24.720;2024-01-15T11:09:19;360.13;;;215.38;;
35685;SDS011;21808;42.142;24.720;2024-01-15T11:09:36;350.42;;;209.93;;
35685;SDS011;21808;42.142;24.720;2024-01-15T11:09:47;311.08;;;186.35;;
35685;SDS011;21808;42.142;24.720;2024-01-15T11:09:59;277.52;;;165.00;;
35685;SDS011;21808;42.142;24.720;2024-01-15T11:10:50;172.38;;;100.63;;
35685;SDS011;21808;42.142;24.720;2024-01-15T11:11:02;157.38;;;89.80;;
35685;SDS011;21808;42.142;24.720;2024-01-15T11:11:14;143.32;;;79.88;;
35685;SDS011;21808;42.142;24.720;2024-01-15T11:11:27;126.63;;;68.72;;
35685;SDS011;21808;42.142;24.720;2024-01-15T11:11:43;113.60;;;61.28;;
35685;SDS011;21808;42.142;24.720;2024-01-15T11:12:06;92.45;;;51.28;;
35685;SDS011;21808;42.142;24.720;2024-01-15T11:12:19;82.07;;;46.15;;
35685;SDS011;21808;42.142;24.720;2024-01-15T11:12:31;75.22;;;42.38;;
35685;SDS011;21808;42.142;24.720;2024-01-15T11:12:42;67.32;;;38.85;;
35685;SDS011;21808;42.142;24.720;2024-01-15T11:12:54;59.85;;;35.15;;
35685;SDS011;21808;42.142;24.720;2024-01-15T11:13:08;56.83;;;33.53;;
35685;SDS011;21808;42.142;24.720;2024-01-15T11:13:21;54.10;;;32.07;;
35685;SDS011;21808;42.142;24.720;2024-01-15T11:13:41;45.55;;;27.58;;
35685;SDS011;21808;42.142;24.720;2024-01-15T11:13:54;41.70;;;24.75;;
35685;SDS011;21808;42.142;24.720;2024-01-15T11:14:06;40.83;;;24.30;;
35685;SDS011;21808;42.142;24.720;2024-01-15T11:14:33;38.38;;;22.95;;
35685;SDS011;21808;42.142;24.720;2024-01-15T11:14:46;32.17;;;19.55;;
35685;SDS011;21808;42.142;24.720;2024-01-15T11:15:01;30.90;;;18.95;;
35685;SDS011;21808;42.142;24.720;2024-01-15T11:15:16;29.05;;;16.98;;
35685;SDS011;21808;42.142;24.720;2024-01-15T11:15:31;27.83;;;16.30;;
35685;SDS011;21808;42.142;24.720;2024-01-15T11:15:55;27.20;;;15.80;;
35685;SDS011;21808;42.142;24.720;2024-01-15T11:16:10;24.45;;;14.85;;
35685;SDS011;21808;42.142;24.720;2024-01-15T11:16:23;23.05;;;14.63;;
35685;SDS011;21808;42.142;24.720;2024-01-15T11:16:53;22.75;;;14.30;;
35685;SDS011;21808;42.142;24.720;2024-01-15T11:17:06;21.02;;;13.40;;
35685;SDS011;21808;42.142;24.720;2024-01-15T11:17:18;20.95;;;13.48;;
35685;SDS011;21808;42.142;24.720;2024-01-15T11:17:30;20.65;;;13.27;;
35685;SDS011;21808;42.142;24.720;2024-01-15T11:18:09;20.17;;;13.05;;
35685;SDS011;21808;42.142;24.720;2024-01-15T11:18:21;19.20;;;12.38;;
35685;SDS011;21808;42.142;24.720;2024-01-15T11:18:34;19.13;;;12.07;;
35685;SDS011;21808;42.142;24.720;2024-01-15T11:19:01;20.17;;;12.40;;
35685;SDS011;21808;42.142;24.720;2024-01-15T11:19:14;19.38;;;12.02;;
35685;SDS011;21808;42.142;24.720;2024-01-15T11:19:27;18.38;;;11.90;;
35685;SDS011;21808;42.142;24.720;2024-01-15T11:19:48;18.30;;;11.60;;
35685;SDS011;21808;42.142;24.720;2024-01-15T11:20:00;18.52;;;11.27;;
35685;SDS011;21808;42.142;24.720;2024-01-15T11:20:18;19.00;;;11.63;;
35685;SDS011;21808;42.142;24.720;2024-01-15T11:20:29;18.73;;;11.68;;
35685;SDS011;21808;42.142;24.720;2024-01-15T11:20:41;19.05;;;11.63;;
35685;SDS011;21808;42.142;24.720;2024-01-15T11:21:34;18.98;;;11.63;;
35685;SDS011;21808;42.142;24.720;2024-01-15T11:21:53;19.00;;;12.02;;
35685;SDS011;21808;42.142;24.720;2024-01-15T11:22:06;18.08;;;11.55;;
35685;SDS011;21808;42.142;24.720;2024-01-15T11:23:00;18.65;;;11.68;;
35685;SDS011;21808;42.142;24.720;2024-01-15T11:23:11;18.08;;;11.50;;
35685;SDS011;21808;42.142;24.720;2024-01-15T11:23:59;17.98;;;11.48;;
35685;SDS011;21808;42.142;24.720;2024-01-15T11:24:12;18.92;;;11.70;;
35685;SDS011;21808;42.142;24.720;2024-01-15T11:24:45;17.83;;;11.23;;
35685;SDS011;21808;42.142;24.720;2024-01-15T11:24:57;17.42;;;10.95;;
35685;SDS011;21808;42.142;24.720;2024-01-15T11:25:14;19.00;;;11.32;;
35685;SDS011;21808;42.142;24.720;2024-01-15T11:25:33;18.88;;;11.23;;
35685;SDS011;21808;42.142;24.720;2024-01-15T11:25:46;17.52;;;11.00;;
35685;SDS011;21808;42.142;24.720;2024-01-15T11:25:58;17.85;;;11.10;;
35685;SDS011;21808;42.142;24.720;2024-01-15T11:26:43;17.85;;;10.75;;
35685;SDS011;21808;42.142;24.720;2024-01-15T11:26:56;17.55;;;10.70;;
35685;SDS011;21808;42.142;24.720;2024-01-15T11:27:08;17.65;;;10.90;;
35685;SDS011;21808;42.142;24.720;2024-01-15T11:27:21;18.35;;;11.38;;
35685;SDS011;21808;42.142;24.720;2024-01-15T11:27:51;19.40;;;11.70;;
35685;SDS011;21808;42.142;24.720;2024-01-15T11:28:05;20.23;;;11.25;;
35685;SDS011;21808;42.142;24.720;2024-01-15T11:28:30;18.88;;;10.88;;
35685;SDS011;21808;42.142;24.720;2024-01-15T11:29:00;18.33;;;11.52;;
35685;SDS011;21808;42.142;24.720;2024-01-15T11:29:43;17.65;;;10.68;;
35685;SDS011;21808;42.142;24.720;2024-01-15T11:30:02;17.73;;;10.98;;
35685;SDS011;21808;42.142;24.720;2024-01-15T11:30:15;17.20;;;10.73;;
35685;SDS011;21808;42.142;24.720;2024-01-15T11:30:27;18.20;;;10.88;;
35685;SDS011;21808;42.142;24.720;2024-01-15T11:30:39;18.17;;;10.98;;
35685;SDS011;21808;42.142;24.720;2024-01-15T11:30:51;17.67;;;11.07;;
35685;SDS011;21808;42.142;24.720;2024-01-15T11:31:05;17.85;;;11.23;;
35685;SDS011;21808;42.142;24.720;2024-01-15T11:31:17;18.05;;;11.18;;
35685;SDS011;21808;42.142;24.720;2024-01-15T11:31:29;17.70;;;11.20;;
35685;SDS011;21808;42.142;24.720;2024-01-15T11:32:02;17.83;;;10.63;;
35685;SDS011;21808;42.142;24.720;2024-01-15T11:32:15;18.23;;;10.73;;
35685;SDS011;21808;42.142;24.720;2024-01-15T11:32:32;17.90;;;10.77;;
35685;SDS011;21808;42.142;24.720;2024-01-15T11:32:45;17.83;;;11.25;;
35685;SDS011;21808;42.142;24.720;2024-01-15T11:32:57;18.23;;;11.32;;
35685;SDS011;21808;42.142;24.720;2024-01-15T11:33:19;18.05;;;10.85;;
35685;SDS011;21808;42.142;24.720;2024-01-15T11:33:47;17.25;;;10.65;;
35685;SDS011;21808;42.142;24.720;2024-01-15T11:34:00;16.92;;;10.70;;
35685;SDS011;21808;42.142;24.720;2024-01-15T11:34:12;17.20;;;11.13;;
35685;SDS011;21808;42.142;24.720;2024-01-15T11:35:08;17.73;;;11.10;;
35685;SDS011;21808;42.142;24.720;2024-01-15T11:35:20;17.33;;;10.88;;
35685;SDS011;21808;42.142;24.720;2024-01-15T11:40:58;36.25;;;24.52;;
35685;SDS011;21808;42.142;24.720;2024-01-15T11:41:13;37.45;;;24.60;;
35685;SDS011;21808;42.142;24.720;2024-01-15T11:43:01;34.92;;;26.70;;
35685;SDS011;21808;42.142;24.720;2024-01-15T11:43:14;41.17;;;29.23;;
35685;SDS011;21808;42.142;24.720;2024-01-15T11:43:26;43.35;;;31.25;;
35685;SDS011;21808;42.142;24.720;2024-01-15T11:43:39;44.72;;;32.15;;
35685;SDS011;21808;42.142;24.720;2024-01-15T11:43:51;43.25;;;31.10;;
35685;SDS011;21808;42.142;24.720;2024-01-15T11:44:03;45.85;;;30.92;;
35685;SDS011;21808;42.142;24.720;2024-01-15T11:44:19;44.65;;;30.63;;
35685;SDS011;21808;42.142;24.720;2024-01-15T11:44:34;43.92;;;30.65;;
35685;SDS011;21808;42.142;24.720;2024-01-15T11:44:46;44.38;;;31.42;;
35685;SDS011;21808;42.142;24.720;2024-01-15T11:45:01;46.10;;;32.03;;
35685;SDS011;21808;42.142;24.720;2024-01-15T11:45:15;47.40;;;31.55;;
35685;SDS011;21808;42.142;24.720;2024-01-15T11:45:30;45.28;;;33.22;;
35685;SDS011;21808;42.142;24.720;2024-01-15T11:45:46;48.00;;;37.83;;
35685;SDS011;21808;42.142;24.720;2024-01-15T11:46:08;53.63;;;37.42;;
35685;SDS011;21808;42.142;24.720;2024-01-15T11:46:22;50.92;;;33.22;;
35685;SDS011;21808;42.142;24.720;2024-01-15T11:46:57;46.22;;;32.42;;
35685;SDS011;21808;42.142;24.720;2024-01-15T11:47:11;49.50;;;37.30;;
35685;SDS011;21808;42.142;24.720;2024-01-15T11:48:26;53.47;;;38.40;;
35685;SDS011;21808;42.142;24.720;2024-01-15T11:48:54;53.17;;;36.20;;
35685;SDS011;21808;42.142;24.720;2024-01-15T11:49:18;49.70;;;34.38;;
35685;SDS011;21808;42.142;24.720;2024-01-15T11:50:01;59.17;;;35.60;;
35685;SDS011;21808;42.142;24.720;2024-01-15T11:50:17;51.13;;;34.53;;
35685;SDS011;21808;42.142;24.720;2024-01-15T11:50:39;50.83;;;33.63;;
35685;SDS011;21808;42.142;24.720;2024-01-15T11:50:55;50.22;;;32.95;;
35685;SDS011;21808;42.142;24.720;2024-01-15T11:51:12;53.65;;;34.13;;
35685;SDS011;21808;42.142;24.720;2024-01-15T11:51:24;52.90;;;33.70;;
35685;SDS011;21808;42.142;24.720;2024-01-15T11:51:36;51.50;;;32.28;;
35685;SDS011;21808;42.142;24.720;2024-01-15T11:51:50;55.05;;;33.50;;
35685;SDS011;21808;42.142;24.720;2024-01-15T11:52:07;55.67;;;34.67;;
35685;SDS011;21808;42.142;24.720;2024-01-15T11:52:22;54.53;;;33.97;;
35685;SDS011;21808;42.142;24.720;2024-01-15T11:52:34;53.85;;;33.78;;
35685;SDS011;21808;42.142;24.720;2024-01-15T11:52:49;56.65;;;34.75;;
35685;SDS011;21808;42.142;24.720;2024-01-15T11:53:16;59.22;;;35.92;;
35685;SDS011;21808;42.142;24.720;2024-01-15T11:53:32;57.20;;;34.85;;
35685;SDS011;21808;42.142;24.720;2024-01-15T11:53:54;61.08;;;35.03;;
35685;SDS011;21808;42.142;24.720;2024-01-15T11:54:13;59.03;;;34.10;;
35685;SDS011;21808;42.142;24.720;2024-01-15T11:54:31;57.95;;;34.40;;
35685;SDS011;21808;42.142;24.720;2024-01-15T11:54:47;55.73;;;33.83;;
35685;SDS011;21808;42.142;24.720;2024-01-15T11:55:10;52.92;;;33.63;;
35685;SDS011;21808;42.142;24.720;2024-01-15T11:55:26;53.05;;;32.25;;
35685;SDS011;21808;42.142;24.720;2024-01-15T11:55:39;54.08;;;31.58;;
35685;SDS011;21808;42.142;24.720;2024-01-15T11:55:56;50.10;;;32.28;;
35685;SDS011;21808;42.142;24.720;2024-01-15T11:56:11;53.17;;;33.75;;
35685;SDS011;21808;42.142;24.720;2024-01-15T11:56:26;56.42;;;33.75;;
35685;SDS011;21808;42.142;24.720;2024-01-15T11:56:38;57.17;;;33.50;;
35685;SDS011;21808;42.142;24.720;2024-01-15T11:56:50;59.58;;;33.58;;
35685;SDS011;21808;42.142;24.720;2024-01-15T11:57:07;60.33;;;34.03;;
35685;SDS011;21808;42.142;24.720;2024-01-15T11:57:30;56.00;;;34.88;;
35685;SDS011;21808;42.142;24.720;2024-01-15T11:57:49;53.75;;;32.53;;
35685;SDS011;21808;42.142;24.720;2024-01-15T11:58:09;53.17;;;32.25;;
35685;SDS011;21808;42.142;24.720;2024-01-15T11:58:21;54.72;;;33.53;;
35685;SDS011;21808;42.142;24.720;2024-01-15T11:58:33;54.00;;;32.55;;
35685;SDS011;21808;42.142;24.720;2024-01-15T11:58:45;57.95;;;32.40;;
35685;SDS011;21808;42.142;24.720;2024-01-15T11:58:58;59.03;;;32.15;;
35685;SDS011;21808;42.142;24.720;2024-01-15T11:59:13;58.67;;;32.45;;
35685;SDS011;21808;42.142;24.720;2024-01-15T11:59:25;57.80;;;33.00;;
35685;SDS011;21808;42.142;24.720;2024-01-15T11:59:37;54.53;;;32.47;;
35685;SDS011;21808;42.142;24.720;2024-01-15T11:59:49;53.47;;;30.98;;
35685;SDS011;21808;42.142;24.720;2024-01-15T12:00:03;50.50;;;29.73;;
35685;SDS011;21808;42.142;24.720;2024-01-15T12:00:16;48.33;;;29.58;;
35685;SDS011;21808;42.142;24.720;2024-01-15T12:00:29;50.53;;;30.58;;
35685;SDS011;21808;42.142;24.720;2024-01-15T12:00:44;48.25;;;29.13;;
35685;SDS011;21808;42.142;24.720;2024-01-15T12:01:08;47.33;;;28.25;;
35685;SDS011;21808;42.142;24.720;2024-01-15T12:01:20;50.17;;;28.90;;
35685;SDS011;21808;42.142;24.720;2024-01-15T12:01:33;49.85;;;29.60;;
35685;SDS011;21808;42.142;24.720;2024-01-15T12:01:45;49.22;;;30.58;;
35685;SDS011;21808;42.142;24.720;2024-01-15T12:01:57;50.17;;;30.30;;
35685;SDS011;21808;42.142;24.720;2024-01-15T12:02:09;51.90;;;30.98;;
35685;SDS011;21808;42.142;24.720;2024-01-15T12:02:24;51.88;;;30.55;;
35685;SDS011;21808;42.142;24.720;2024-01-15T12:02:39;52.92;;;30.20;;
35685;SDS011;21808;42.142;24.720;2024-01-15T12:02:51;50.13;;;29.92;;
35685;SDS011;21808;42.142;24.720;2024-01-15T12:03:04;50.50;;;30.30;;
35685;SDS011;21808;42.142;24.720;2024-01-15T12:03:16;50.45;;;30.38;;
35685;SDS011;21808;42.142;24.720;2024-01-15T12:03:28;48.88;;;28.52;;
35685;SDS011;21808;42.142;24.720;2024-01-15T12:03:44;46.65;;;26.83;;
35685;SDS011;21808;42.142;24.720;2024-01-15T12:04:01;46.60;;;26.55;;
35685;SDS011;21808;42.142;24.720;2024-01-15T12:04:14;47.22;;;26.92;;
35685;SDS011;21808;42.142;24.720;2024-01-15T12:04:28;48.75;;;27.80;;
35685;SDS011;21808;42.142;24.720;2024-01-15T12:04:40;49.47;;;27.35;;
35685;SDS011;21808;42.142;24.720;2024-01-15T12:04:53;48.13;;;26.40;;
35685;SDS011;21808;42.142;24.720;2024-01-15T12:05:06;47.78;;;26.75;;
35685;SDS011;21808;42.142;24.720;2024-01-15T12:05:22;48.55;;;27.83;;
35685;SDS011;21808;42.142;24.720;2024-01-15T12:05:36;48.88;;;27.42;;
35685;SDS011;21808;42.142;24.720;2024-01-15T12:05:48;46.75;;;26.02;;
35685;SDS011;21808;42.142;24.720;2024-01-15T12:06:01;45.22;;;25.02;;
35685;SDS011;21808;42.142;24.720;2024-01-15T12:06:12;45.67;;;25.05;;
35685;SDS011;21808;42.142;24.720;2024-01-15T12:06:27;46.17;;;25.13;;
35685;SDS011;21808;42.142;24.720;2024-01-15T12:06:38;45.65;;;25.45;;
35685;SDS011;21808;42.142;24.720;2024-01-15T12:06:51;46.15;;;25.52;;
35685;SDS011;21808;42.142;24.720;2024-01-15T12:07:03;47.20;;;25.20;;
35685;SDS011;21808;42.142;24.720;2024-01-15T12:07:15;48.95;;;26.45;;
35685;SDS011;21808;42.142;24.720;2024-01-15T12:07:27;46.45;;;27.13;;
35685;SDS011;21808;42.142;24.720;2024-01-15T12:07:39;46.50;;;27.15;;
35685;SDS011;21808;42.142;24.720;2024-01-15T12:07:55;45.13;;;24.95;;
35685;SDS011;21808;42.142;24.720;2024-01-15T12:08:15;45.58;;;25.52;;
35685;SDS011;21808;42.142;24.720;2024-01-15T12:08:32;48.25;;;26.70;;
35685;SDS011;21808;42.142;24.720;2024-01-15T12:08:44;49.55;;;26.63;;
35685;SDS011;21808;42.142;24.720;2024-01-15T12:09:05;47.42;;;26.20;;
35685;SDS011;21808;42.142;24.720;2024-01-15T12:09:18;48.20;;;26.43;;
35685;SDS011;21808;42.142;24.720;2024-01-15T12:09:33;46.70;;;25.08;;
35685;SDS011;21808;42.142;24.720;2024-01-15T12:09:45;45.63;;;24.48;;
35685;SDS011;21808;42.142;24.720;2024-01-15T12:09:57;46.70;;;24.48;;
35685;SDS011;21808;42.142;24.720;2024-01-15T12:10:09;45.78;;;25.08;;
35685;SDS011;21808;42.142;24.720;2024-01-15T12:10:22;45.13;;;24.63;;
35685;SDS011;21808;42.142;24.720;2024-01-15T12:10:34;46.40;;;24.42;;
35685;SDS011;21808;42.142;24.720;2024-01-15T12:10:46;46.95;;;24.95;;
35685;SDS011;21808;42.142;24.720;2024-01-15T12:11:03;47.92;;;25.48;;
35685;SDS011;21808;42.142;24.720;2024-01-15T12:11:18;46.70;;;25.30;;
35685;SDS011;21808;42.142;24.720;2024-01-15T12:11:34;45.67;;;24.98;;
35685;SDS011;21808;42.142;24.720;2024-01-15T12:11:50;43.83;;;24.42;;
35685;SDS011;21808;42.142;24.720;2024-01-15T12:12:09;46.72;;;24.40;;
35685;SDS011;21808;42.142;24.720;2024-01-15T12:12:28;44.10;;;23.98;;
35685;SDS011;21808;42.142;24.720;2024-01-15T12:12:54;44.90;;;23.93;;
35685;SDS011;21808;42.142;24.720;2024-01-15T12:13:11;43.13;;;23.23;;
35685;SDS011;21808;42.142;24.720;2024-01-15T12:13:24;45.55;;;22.75;;
35685;SDS011;21808;42.142;24.720;2024-01-15T12:13:38;48.35;;;23.80;;
35685;SDS011;21808;42.142;24.720;2024-01-15T12:13:50;46.55;;;23.38;;
35685;SDS011;21808;42.142;24.720;2024-01-15T12:14:02;46.55;;;23.33;;
35685;SDS011;21808;42.142;24.720;2024-01-15T12:14:14;51.13;;;24.15;;
35685;SDS011;21808;42.142;24.720;2024-01-15T12:14:27;52.50;;;25.00;;
35685;SDS011;21808;42.142;24.720;2024-01-15T12:14:39;55.85;;;24.92;;
35685;SDS011;21808;42.142;24.720;2024-01-15T12:14:51;54.75;;;24.45;;
35685;SDS011;21808;42.142;24.720;2024-01-15T12:15:04;58.10;;;23.85;;
35685;SDS011;21808;42.142;24.720;2024-01-15T12:15:17;51.20;;;23.95;;
35685;SDS011;21808;42.142;24.720;2024-01-15T12:15:29;49.13;;;24.40;;
35685;SDS011;21808;42.142;24.720;2024-01-15T12:15:42;47.17;;;25.25;;
35685;SDS011;21808;42.142;24.720;2024-01-15T12:15:57;54.05;;;26.60;;
35685;SDS011;21808;42.142;24.720;2024-01-15T12:16:13;55.97;;;26.40;;
35685;SDS011;21808;42.142;24.720;2024-01-15T12:16:25;47.55;;;25.10;;
35685;SDS011;21808;42.142;24.720;2024-01-15T12:16:37;43.72;;;24.02;;
35685;SDS011;21808;42.142;24.720;2024-01-15T12:16:49;44.00;;;23.95;;
35685;SDS011;21808;42.142;24.720;2024-01-15T12:17:01;45.25;;;25.00;;
35685;SDS011;21808;42.142;24.720;2024-01-15T12:17:21;48.72;;;25.65;;
35685;SDS011;21808;42.142;24.720;2024-01-15T12:17:34;49.30;;;25.60;;
35685;SDS011;21808;42.142;24.720;2024-01-15T12:17:46;49.55;;;26.17;;
35685;SDS011;21808;42.142;24.720;2024-01-15T12:18:02;48.63;;;26.83;;
35685;SDS011;21808;42.142;24.720;2024-01-15T12:18:17;45.42;;;25.83;;
35685;SDS011;21808;42.142;24.720;2024-01-15T12:18:30;44.95;;;25.38;;
35685;SDS011;21808;42.142;24.720;2024-01-15T12:18:42;45.80;;;25.38;;
35685;SDS011;21808;42.142;24.720;2024-01-15T12:18:57;45.72;;;26.33;;
35685;SDS011;21808;42.142;24.720;2024-01-15T12:19:09;49.10;;;27.85;;
35685;SDS011;21808;42.142;24.720;2024-01-15T12:19:25;51.00;;;29.05;;
35685;SDS011;21808;42.142;24.720;2024-01-15T12:19:37;50.80;;;30.15;;
35685;SDS011;21808;42.142;24.720;2024-01-15T12:19:57;52.17;;;29.52;;
35685;SDS011;21808;42.142;24.720;2024-01-15T12:20:09;52.55;;;28.75;;
35685;SDS011;21808;42.142;24.720;2024-01-15T12:20:22;54.10;;;28.48;;
35685;SDS011;21808;42.142;24.720;2024-01-15T12:20:34;51.35;;;27.65;;
35685;SDS011;21808;42.142;24.720;2024-01-15T12:20:46;51.25;;;27.95;;
35685;SDS011;21808;42.142;24.720;2024-01-15T12:20:59;53.40;;;29.77;;
35685;SDS011;21808;42.142;24.720;2024-01-15T12:21:14;55.22;;;30.98;;
35685;SDS011;21808;42.142;24.720;2024-01-15T12:21:26;56.78;;;32.20;;
35685;SDS011;21808;42.142;24.720;2024-01-15T12:21:38;55.78;;;31.75;;
35685;SDS011;21808;42.142;24.720;2024-01-15T12:21:50;55.65;;;31.08;;
35685;SDS011;21808;42.142;24.720;2024-01-15T12:22:02;56.58;;;31.10;;
35685;SDS011;21808;42.142;24.720;2024-01-15T12:22:15;59.72;;;31.55;;
35685;SDS011;21808;42.142;24.720;2024-01-15T12:22:27;60.40;;;31.88;;
35685;SDS011;21808;42.142;24.720;2024-01-15T12:22:38;58.03;;;32.25;;
35685;SDS011;21808;42.142;24.720;2024-01-15T12:22:50;56.70;;;31.67;;
35685;SDS011;21808;42.142;24.720;2024-01-15T12:23:12;59.05;;;31.50;;
35685;SDS011;21808;42.142;24.720;2024-01-15T12:23:24;62.55;;;32.28;;
35685;SDS011;21808;42.142;24.720;2024-01-15T12:23:36;61.55;;;32.40;;
35685;SDS011;21808;42.142;24.720;2024-01-15T12:23:48;60.30;;;32.10;;
35685;SDS011;21808;42.142;24.720;2024-01-15T12:24:00;58.65;;;31.73;;
35685;SDS011;21808;42.142;24.720;2024-01-15T12:24:12;62.35;;;32.05;;
35685;SDS011;21808;42.142;24.720;2024-01-15T12:24:28;63.40;;;32.60;;
35685;SDS011;21808;42.142;24.720;2024-01-15T12:24:40;63.30;;;32.30;;
35685;SDS011;21808;42.142;24.720;2024-01-15T12:24:54;61.70;;;31.38;;
35685;SDS011;21808;42.142;24.720;2024-01-15T12:25:06;58.88;;;30.92;;
35685;SDS011;21808;42.142;24.720;2024-01-15T12:25:22;59.25;;;31.10;;
35685;SDS011;21808;42.142;24.720;2024-01-15T12:25:34;57.67;;;31.52;;
35685;SDS011;21808;42.142;24.720;2024-01-15T12:25:47;55.38;;;31.85;;
35685;SDS011;21808;42.142;24.720;2024-01-15T12:25:59;56.65;;;32.00;;
35685;SDS011;21808;42.142;24.720;2024-01-15T12:26:11;58.90;;;32.17;;
35685;SDS011;21808;42.142;24.720;2024-01-15T12:26:23;58.35;;;31.73;;
35685;SDS011;21808;42.142;24.720;2024-01-15T12:26:35;58.00;;;32.20;;
35685;SDS011;21808;42.142;24.720;2024-01-15T12:26:51;59.10;;;33.58;;
35685;SDS011;21808;42.142;24.720;2024-01-15T12:27:06;57.00;;;31.88;;
35685;SDS011;21808;42.142;24.720;2024-01-15T12:27:19;56.28;;;31.02;;
35685;SDS011;21808;42.142;24.720;2024-01-15T12:27:36;56.60;;;32.20;;
35685;SDS011;21808;42.142;24.720;2024-01-15T12:27:48;59.95;;;32.90;;
35685;SDS011;21808;42.142;24.720;2024-01-15T12:28:00;60.97;;;32.70;;
35685;SDS011;21808;42.142;24.720;2024-01-15T12:28:21;58.15;;;31.52;;
35685;SDS011;21808;42.142;24.720;2024-01-15T12:28:33;54.83;;;29.15;;
35685;SDS011;21808;42.142;24.720;2024-01-15T12:28:44;54.60;;;28.95;;
35685;SDS011;21808;42.142;24.720;2024-01-15T12:28:56;56.90;;;30.25;;
35685;SDS011;21808;42.142;24.720;2024-01-15T12:29:08;55.75;;;29.50;;
35685;SDS011;21808;42.142;24.720;2024-01-15T12:29:21;56.05;;;29.00;;
35685;SDS011;21808;42.142;24.720;2024-01-15T12:29:33;57.22;;;29.80;;
35685;SDS011;21808;42.142;24.720;2024-01-15T12:29:45;58.25;;;30.88;;
35685;SDS011;21808;42.142;24.720;2024-01-15T12:29:57;61.28;;;32.50;;
35685;SDS011;21808;42.142;24.720;2024-01-15T12:30:12;60.22;;;32.75;;
35685;SDS011;21808;42.142;24.720;2024-01-15T12:30:28;56.55;;;31.35;;
35685;SDS011;21808;42.142;24.720;2024-01-15T12:30:40;58.75;;;30.98;;
35685;SDS011;21808;42.142;24.720;2024-01-15T12:30:52;58.88;;;31.42;;
35685;SDS011;21808;42.142;24.720;2024-01-15T12:31:07;54.28;;;30.33;;
35685;SDS011;21808;42.142;24.720;2024-01-15T12:31:20;54.85;;;31.50;;
35685;SDS011;21808;42.142;24.720;2024-01-15T12:31:35;57.97;;;33.42;;
35685;SDS011;21808;42.142;24.720;2024-01-15T12:31:47;61.42;;;34.08;;
35685;SDS011;21808;42.142;24.720;2024-01-15T12:32:02;59.75;;;32.65;;
35685;SDS011;21808;42.142;24.720;2024-01-15T12:32:16;58.83;;;32.22;;
35685;SDS011;21808;42.142;24.720;2024-01-15T12:32:30;63.22;;;33.17;;
35685;SDS011;21808;42.142;24.720;2024-01-15T12:32:42;62.33;;;33.50;;
35685;SDS011;21808;42.142;24.720;2024-01-15T12:32:57;57.60;;;31.95;;
35685;SDS011;21808;42.142;24.720;2024-01-15T12:33:08;58.47;;;31.05;;
35685;SDS011;21808;42.142;24.720;2024-01-15T12:33:21;59.45;;;30.50;;
35685;SDS011;21808;42.142;24.720;2024-01-15T12:33:33;58.78;;;30.95;;
35685;SDS011;21808;42.142;24.720;2024-01-15T12:33:45;60.50;;;31.92;;
35685;SDS011;21808;42.142;24.720;2024-01-15T12:34:01;62.63;;;32.60;;
35685;SDS011;21808;42.142;24.720;2024-01-15T12:34:16;63.25;;;33.63;;
35685;SDS011;21808;42.142;24.720;2024-01-15T12:34:29;61.58;;;33.80;;
35685;SDS011;21808;42.142;24.720;2024-01-15T12:34:41;63.40;;;33.47;;
35685;SDS011;21808;42.142;24.720;2024-01-15T12:34:53;65.07;;;33.78;;
35685;SDS011;21808;42.142;24.720;2024-01-15T12:35:05;64.13;;;34.28;;